Time;durP1;ratioP1;P1;durP2;ratioP2;P2;SDS_P1;SDS_P2;PMS_P1;PMS_P2;Temp;Humidity;BMP_temperature;BMP_pressure;BME280_temperature;BME280_humidity;BME280_pressure;Samples;Min_cycle;Max_cycle;Signal;HPM_P1;HPM_P2
2022/01/06 00:01:57;;;;;;;7.05;1.92;;;17.00;57.20;;;;;;4949070;29;20490;-73
2022/01/06 00:04:23;;;;;;;6.72;2.15;;;16.90;57.30;;;;;;4949679;29;20151;-72
2022/01/06 00:06:48;;;;;;;6.07;1.88;;;17.00;57.30;;;;;;4949304;28;20031;-73
2022/01/06 00:09:17;;;;;;;5.63;1.40;;;16.90;57.30;;;;;;4949092;29;20027;-73
2022/01/06 00:11:44;;;;;;;5.78;1.60;;;16.90;57.40;;;;;;4948928;29;20020;-73
2022/01/06 00:14:21;;;;;;;7.00;1.92;;;16.90;57.40;;;;;;4949305;29;20046;-72
2022/01/06 00:24:27;;;;;;;6.25;1.80;;;16.80;57.40;;;;;;4949455;29;20046;-72
2022/01/06 00:26:54;;;;;;;5.07;1.70;;;16.70;57.40;;;;;;4948978;29;20027;-73
2022/01/06 00:29:20;;;;;;;5.82;1.75;;;16.70;57.40;;;;;;4949291;29;20026;-72
2022/01/06 00:31:46;;;;;;;7.63;2.10;;;16.70;57.40;;;;;;4948783;29;20122;-73
2022/01/06 00:34:12;;;;;;;5.65;1.63;;;16.70;57.40;;;;;;4949195;29;20027;-73
2022/01/06 00:36:40;;;;;;;5.75;1.63;;;16.70;57.60;;;;;;4948762;29;20024;-73
2022/01/06 00:39:08;;;;;;;4.93;1.70;;;16.70;57.30;;;;;;4948684;29;20741;-72
2022/01/06 00:41:36;;;;;;;4.72;1.58;;;16.70;57.40;;;;;;4948755;29;20023;-73
2022/01/06 00:44:04;;;;;;;5.57;1.77;;;16.70;57.30;;;;;;4947925;29;20027;-74
2022/01/06 00:46:30;;;;;;;5.90;2.28;;;16.70;57.20;;;;;;4948591;29;20027;-73
2022/01/06 00:48:55;;;;;;;6.15;1.80;;;16.70;57.20;;;;;;4948638;29;20030;-73
2022/01/06 00:51:21;;;;;;;6.95;1.80;;;16.80;58.30;;;;;;4948610;29;20028;-73
2022/01/06 00:53:47;;;;;;;5.78;1.42;;;16.70;57.10;;;;;;4948765;29;20034;-73
2022/01/06 00:56:13;;;;;;;5.63;1.63;;;16.70;57.10;;;;;;4948630;29;20015;-73
2022/01/06 00:58:39;;;;;;;7.45;1.92;;;16.70;57.10;;;;;;4948371;29;20090;-73
2022/01/06 01:01:04;;;;;;;5.68;1.58;;;16.80;57.10;;;;;;4948382;29;20031;-73
2022/01/06 01:03:30;;;;;;;7.75;1.85;;;16.80;57.10;;;;;;4948682;29;20027;-73
2022/01/06 01:05:57;;;;;;;5.55;1.63;;;16.80;57.10;;;;;;4948504;29;20111;-73
2022/01/06 01:08:24;;;;;;;4.18;1.63;;;16.80;56.90;;;;;;4948750;29;20106;-73
2022/01/06 01:10:52;;;;;;;5.75;1.85;;;16.80;56.80;;;;;;4948660;29;20031;-73
2022/01/06 01:13:27;;;;;;;6.60;2.00;;;16.80;56.80;;;;;;4931241;29;20406;-73
2022/01/06 01:15:56;;;;;;;6.45;1.90;;;16.80;56.70;;;;;;4948482;29;20157;-74
2022/01/06 01:18:22;;;;;;;5.00;1.60;;;16.80;56.70;;;;;;4948593;28;20118;-73
2022/01/06 01:20:50;;;;;;;4.43;1.55;;;16.80;56.70;;;;;;4952303;29;20026;-73
2022/01/06 01:23:17;;;;;;;5.57;1.77;;;16.80;56.70;;;;;;4953082;29;20035;-72
2022/01/06 01:25:43;;;;;;;6.28;1.75;;;16.80;56.60;;;;;;4952146;29;20047;-73
2022/01/06 01:28:10;;;;;;;4.10;1.20;;;16.80;56.60;;;;;;4952269;29;20031;-73
2022/01/06 01:30:51;;;;;;;4.43;1.63;;;16.80;56.60;;;;;;4952220;29;20403;-73
2022/01/06 01:33:17;;;;;;;5.93;1.77;;;16.80;57.50;;;;;;4951878;29;20031;-73
2022/01/06 01:35:42;;;;;;;6.40;2.00;;;16.80;56.60;;;;;;4951612;29;20117;-73
2022/01/06 01:38:09;;;;;;;4.57;1.40;;;16.70;56.50;;;;;;4951784;29;20150;-73
2022/01/06 01:40:35;;;;;;;5.82;1.60;;;16.80;56.50;;;;;;4951563;29;20043;-73
2022/01/06 01:43:01;;;;;;;4.80;1.63;;;16.80;56.50;;;;;;4951329;29;20027;-73
2022/01/06 01:45:32;;;;;;;5.97;1.55;;;16.80;56.40;;;;;;4950218;29;20051;-73
2022/01/06 01:48:00;;;;;;;4.65;1.33;;;16.80;56.40;;;;;;4952201;29;20114;-73
2022/01/06 01:50:26;;;;;;;4.40;1.55;;;16.80;56.40;;;;;;4952158;29;20035;-73
2022/01/06 01:52:56;;;;;;;5.78;1.80;;;16.70;56.30;;;;;;4952275;29;20508;-73
2022/01/06 01:55:24;;;;;;;4.68;1.40;;;16.70;56.20;;;;;;4952460;29;20494;-72
2022/01/06 01:57:51;;;;;;;4.18;1.52;;;16.70;56.20;;;;;;4951201;29;20046;-73
2022/01/06 02:00:18;;;;;;;3.45;1.27;;;16.70;56.30;;;;;;4952117;29;20045;-73
2022/01/06 02:02:44;;;;;;;4.22;1.23;;;16.70;56.20;;;;;;4951448;29;20130;-73
2022/01/06 02:05:11;;;;;;;4.82;1.33;;;16.70;56.10;;;;;;4952442;29;20454;-73
2022/01/06 02:07:41;;;;;;;5.22;1.45;;;16.70;56.20;;;;;;4951958;29;20046;-73
2022/01/06 02:10:09;;;;;;;4.95;1.40;;;16.70;56.30;;;;;;4951753;29;20035;-73
2022/01/06 02:12:38;;;;;;;4.88;1.60;;;16.70;56.20;;;;;;4950976;29;20156;-73
2022/01/06 02:15:08;;;;;;;3.63;1.20;;;16.70;56.10;;;;;;4950954;29;20042;-73
2022/01/06 02:17:34;;;;;;;6.03;1.73;;;16.70;56.10;;;;;;4951410;29;20030;-73
2022/01/06 02:20:03;;;;;;;3.45;1.40;;;16.70;56.10;;;;;;4951849;29;20031;-73
2022/01/06 02:22:29;;;;;;;3.83;1.48;;;16.70;56.00;;;;;;4951022;29;20078;-73
2022/01/06 02:24:54;;;;;;;6.07;1.38;;;16.70;56.10;;;;;;4950847;29;20074;-73
2022/01/06 02:27:21;;;;;;;5.07;1.65;;;16.70;56.10;;;;;;4951107;29;20031;-73
2022/01/06 02:29:51;;;;;;;4.13;1.08;;;16.60;56.10;;;;;;4951194;29;20479;-73
2022/01/06 02:32:19;;;;;;;2.78;1.20;;;16.60;56.00;;;;;;4950685;28;20019;-73
2022/01/06 02:34:45;;;;;;;5.93;1.48;;;16.60;56.00;;;;;;4950716;29;20103;-73
2022/01/06 02:37:12;;;;;;;3.85;1.30;;;16.70;56.10;;;;;;4950762;29;20038;-73
2022/01/06 02:39:38;;;;;;;4.47;1.40;;;16.60;55.90;;;;;;4951113;29;20508;-73
2022/01/06 02:42:04;;;;;;;4.93;1.55;;;16.60;55.90;;;;;;4951046;29;20123;-71
2022/01/06 02:44:30;;;;;;;5.50;1.40;;;16.60;55.80;;;;;;4950464;29;20510;-73
2022/01/06 02:46:56;;;;;;;5.00;1.45;;;16.60;55.80;;;;;;4950897;29;20027;-71
2022/01/06 02:49:21;;;;;;;3.88;1.10;;;16.60;55.80;;;;;;4951217;29;20070;-71
2022/01/06 02:51:47;;;;;;;3.13;1.13;;;16.60;55.80;;;;;;4950552;29;20027;-71
2022/01/06 02:54:14;;;;;;;3.95;1.42;;;16.60;55.80;;;;;;4950526;29;20107;-71
2022/01/06 02:56:42;;;;;;;3.30;1.20;;;16.60;55.80;;;;;;4950508;29;20391;-71
2022/01/06 02:59:08;;;;;;;4.93;1.55;;;16.60;55.70;;;;;;4950843;29;20043;-72
2022/01/06 03:01:39;;;;;;;5.28;1.48;;;16.60;55.70;;;;;;4950816;29;20038;-72
2022/01/06 03:04:05;;;;;;;5.10;1.52;;;16.60;55.70;;;;;;4951629;29;20031;-72
2022/01/06 03:06:31;;;;;;;5.22;1.45;;;16.60;55.60;;;;;;4950825;29;20463;-71
2022/01/06 03:08:58;;;;;;;2.90;1.13;;;16.60;55.60;;;;;;4950657;29;20505;-73
2022/01/06 03:11:27;;;;;;;2.90;1.30;;;16.60;55.60;;;;;;4950491;29;20118;-72
2022/01/06 03:13:53;;;;;;;4.65;1.50;;;16.60;55.60;;;;;;4950275;29;20023;-73
2022/01/06 03:16:19;;;;;;;4.53;1.48;;;16.60;55.50;;;;;;4950112;29;20070;-73
2022/01/06 03:18:44;;;;;;;4.72;1.50;;;16.60;55.40;;;;;;4950173;29;20125;-72
2022/01/06 03:21:10;;;;;;;3.95;1.23;;;16.60;55.40;;;;;;4950498;29;20091;-72
2022/01/06 03:23:37;;;;;;;4.22;1.40;;;16.60;55.30;;;;;;4949743;29;20098;-73
2022/01/06 03:26:02;;;;;;;4.40;1.30;;;16.60;55.30;;;;;;4949904;29;20035;-72
2022/01/06 03:28:28;;;;;;;4.35;1.30;;;16.60;55.30;;;;;;4949669;29;20023;-73
2022/01/06 03:30:54;;;;;;;4.88;1.70;;;16.60;55.30;;;;;;4949825;29;20032;-73
2022/01/06 03:33:19;;;;;;;3.25;1.17;;;16.60;56.20;;;;;;4950171;29;20081;-73
2022/01/06 03:35:45;;;;;;;4.50;1.25;;;16.60;55.30;;;;;;4950061;29;20139;-73
2022/01/06 03:38:11;;;;;;;3.75;1.10;;;16.60;55.20;;;;;;4949838;29;20163;-72
2022/01/06 03:40:37;;;;;;;4.00;1.30;;;16.60;55.10;;;;;;4949749;29;20042;-72
2022/01/06 03:43:02;;;;;;;4.20;1.35;;;16.60;55.00;;;;;;4949058;28;20024;-73
2022/01/06 03:45:28;;;;;;;5.55;1.55;;;16.70;55.10;;;;;;4949282;29;20050;-72
2022/01/06 03:47:55;;;;;;;4.25;1.40;;;16.60;54.90;;;;;;4949219;29;20027;-72
2022/01/06 03:50:20;;;;;;;3.22;1.20;;;16.70;54.90;;;;;;4949417;29;20039;-72
2022/01/06 03:52:46;;;;;;;3.17;1.10;;;16.70;55.00;;;;;;4949379;29;20368;-72
2022/01/06 03:55:14;;;;;;;3.95;1.20;;;16.70;55.00;;;;;;4949151;29;20498;-71
2022/01/06 03:57:40;;;;;;;3.50;1.10;;;16.70;55.00;;;;;;4949058;29;20035;-72
2022/01/06 05:42:57;;;;;;;3.95;1.30;;;18.30;51.00;;;;;;5357510;23;20078;-73
2022/01/06 05:45:23;;;;;;;3.97;1.25;;;18.30;51.20;;;;;;4970704;28;20049;-73
2022/01/06 05:47:49;;;;;;;4.82;1.20;;;18.20;51.20;;;;;;4970867;28;20085;-73
2022/01/06 05:50:15;;;;;;;3.30;1.10;;;18.20;51.20;;;;;;4971324;28;20031;-73
2022/01/06 05:52:40;;;;;;;3.08;1.33;;;18.20;51.20;;;;;;4970926;28;20034;-73
2022/01/06 05:55:06;;;;;;;2.22;0.95;;;18.20;51.40;;;;;;4970828;28;20046;-73
2022/01/06 05:57:32;;;;;;;2.50;0.90;;;18.10;51.40;;;;;;4971497;28;20034;-74
2022/01/06 05:59:58;;;;;;;4.72;1.30;;;18.10;51.40;;;;;;4970378;28;20030;-74
2022/01/06 06:02:23;;;;;;;3.67;1.00;;;18.10;51.60;;;;;;4971038;28;20537;-74
2022/01/06 06:04:49;;;;;;;3.55;1.05;;;18.00;51.70;;;;;;4970221;28;20027;-74
2022/01/06 06:07:14;;;;;;;3.65;1.27;;;18.00;52.00;;;;;;4969531;28;20378;-75
2022/01/06 06:09:41;;;;;;;4.10;1.30;;;18.00;52.00;;;;;;4970740;28;20040;-74
2022/01/06 06:12:08;;;;;;;3.13;0.98;;;18.00;52.00;;;;;;4971040;28;20023;-74
2022/01/06 06:14:34;;;;;;;3.75;1.33;;;18.00;52.00;;;;;;4970230;28;20027;-73
2022/01/06 06:17:01;;;;;;;2.60;1.20;;;18.00;52.10;;;;;;4970656;28;20030;-72
2022/01/06 06:19:27;;;;;;;3.75;1.27;;;18.00;52.20;;;;;;4970463;28;20050;-73
2022/01/06 06:21:53;;;;;;;3.63;1.27;;;18.00;52.50;;;;;;4970121;28;20117;-74
2022/01/06 06:24:20;;;;;;;3.47;1.33;;;17.90;52.50;;;;;;4970695;28;20113;-73
2022/01/06 06:26:46;;;;;;;3.80;1.50;;;17.90;52.70;;;;;;4970355;28;20027;-74
2022/01/06 06:29:11;;;;;;;4.60;1.10;;;17.90;52.80;;;;;;4970191;28;20027;-74
2022/01/06 06:31:37;;;;;;;3.58;1.35;;;17.80;52.80;;;;;;4970747;28;20057;-72
2022/01/06 06:34:02;;;;;;;3.53;1.42;;;17.80;52.90;;;;;;4969820;28;20031;-73
2022/01/06 06:36:28;;;;;;;3.78;1.48;;;17.70;53.10;;;;;;4970388;28;20110;-72
2022/01/06 06:38:54;;;;;;;5.22;1.50;;;17.70;53.20;;;;;;4970591;28;20098;-74
2022/01/06 06:41:19;;;;;;;5.10;1.17;;;17.70;53.40;;;;;;4970392;28;20031;-73
2022/01/06 06:43:45;;;;;;;3.20;1.30;;;17.60;53.40;;;;;;4969721;28;20054;-75
2022/01/06 06:46:11;;;;;;;3.60;1.20;;;17.60;53.50;;;;;;4969549;28;20031;-75
2022/01/06 06:48:37;;;;;;;3.67;1.42;;;17.50;53.30;;;;;;4952644;28;20490;-74
2022/01/06 06:51:03;;;;;;;5.50;1.50;;;17.50;53.30;;;;;;4969998;28;20121;-73
2022/01/06 06:53:29;;;;;;;4.07;1.67;;;17.40;53.40;;;;;;4970005;28;20023;-73
2022/01/06 06:55:55;;;;;;;4.60;1.38;;;17.40;53.50;;;;;;4952686;28;20366;-74
2022/01/06 06:58:20;;;;;;;7.80;2.92;;;17.40;53.30;;;;;;4970151;28;20511;-74
2022/01/06 07:00:48;;;;;;;4.60;1.98;;;17.40;53.70;;;;;;4969947;28;20038;-73
2022/01/06 07:03:13;;;;;;;8.65;2.20;;;17.30;53.60;;;;;;4969730;28;20027;-73
2022/01/06 07:05:39;;;;;;;4.47;2.30;;;17.30;53.60;;;;;;4969515;28;20061;-74
2022/01/06 07:08:06;;;;;;;6.13;1.90;;;17.30;53.70;;;;;;4969960;28;20084;-74
2022/01/06 07:10:31;;;;;;;4.93;2.10;;;17.30;54.00;;;;;;4969806;28;20035;-74
2022/01/06 07:12:57;;;;;;;4.82;2.00;;;17.20;53.70;;;;;;4969104;28;20034;-75
2022/01/06 07:15:23;;;;;;;4.00;2.10;;;17.20;53.70;;;;;;4969172;28;20031;-72
2022/01/06 07:17:48;;;;;;;4.85;2.28;;;17.20;53.80;;;;;;4968733;28;20678;-72
2022/01/06 07:20:14;;;;;;;5.63;2.53;;;17.20;53.50;;;;;;4968703;28;20029;-72
2022/01/06 07:22:40;;;;;;;6.80;2.80;;;17.10;53.40;;;;;;4969080;28;20035;-72
2022/01/06 07:25:07;;;;;;;4.60;2.55;;;17.10;53.40;;;;;;4969105;28;20121;-72
2022/01/06 07:27:33;;;;;;;5.35;2.80;;;17.10;53.60;;;;;;4970334;28;20070;-74
2022/01/06 07:29:58;;;;;;;6.82;2.50;;;17.00;53.70;;;;;;4969101;28;20078;-73
2022/01/06 07:32:24;;;;;;;4.78;2.50;;;17.00;53.90;;;;;;4968420;28;20448;-73
2022/01/06 07:34:51;;;;;;;5.68;2.33;;;17.00;53.90;;;;;;4969445;28;20023;-73
2022/01/06 07:37:16;;;;;;;6.05;2.60;;;17.00;53.70;;;;;;4969490;28;20027;-73
2022/01/06 07:39:42;;;;;;;4.95;2.50;;;17.00;53.90;;;;;;4969463;28;20517;-73
2022/01/06 07:42:08;;;;;;;5.15;2.55;;;17.00;53.90;;;;;;4968930;28;20038;-73
2022/01/06 07:44:34;;;;;;;4.57;2.55;;;17.00;53.90;;;;;;4969815;28;20460;-74
2022/01/06 07:47:00;;;;;;;5.82;2.15;;;17.00;54.00;;;;;;4968976;28;20507;-75
2022/01/06 07:49:26;;;;;;;5.07;2.25;;;17.00;54.00;;;;;;4968954;28;20027;-74
2022/01/06 07:51:54;;;;;;;5.32;2.20;;;17.00;54.00;;;;;;4968429;28;20090;-75
2022/01/06 07:54:20;;;;;;;6.65;2.50;;;17.00;53.80;;;;;;4969166;28;20504;-74
2022/01/06 07:56:45;;;;;;;5.28;2.60;;;17.00;53.70;;;;;;4968551;28;20039;-73
2022/01/06 07:59:11;;;;;;;6.45;2.33;;;17.00;53.70;;;;;;4968604;28;20071;-73
2022/01/06 08:01:37;;;;;;;5.30;2.33;;;17.00;53.80;;;;;;4969225;28;20023;-74
2022/01/06 08:04:03;;;;;;;8.88;2.38;;;16.90;54.00;;;;;;4969384;28;20031;-73
2022/01/06 08:06:29;;;;;;;6.50;2.30;;;17.00;54.00;;;;;;4969069;28;20513;-71
2022/01/06 08:08:54;;;;;;;6.28;2.47;;;17.00;53.80;;;;;;4968766;28;20038;-72
2022/01/06 08:11:20;;;;;;;5.68;2.30;;;17.00;54.00;;;;;;4969133;28;20079;-73
2022/01/06 08:13:46;;;;;;;5.80;2.10;;;17.00;54.20;;;;;;4968863;28;20029;-73
2022/01/06 08:16:11;;;;;;;5.90;2.30;;;17.00;54.30;;;;;;4969749;28;20493;-72
2022/01/06 08:18:39;;;;;;;4.70;1.98;;;17.00;54.30;;;;;;4970022;28;20049;-73
2022/01/06 08:21:04;;;;;;;4.30;2.40;;;17.00;54.20;;;;;;4971891;28;20050;-73
2022/01/06 08:23:30;;;;;;;6.57;2.30;;;17.00;54.20;;;;;;4972353;28;20031;-75
2022/01/06 08:25:56;;;;;;;4.65;2.03;;;17.00;54.30;;;;;;4969796;28;20043;-74
2022/01/06 08:28:22;;;;;;;5.70;2.08;;;17.00;54.10;;;;;;4968244;28;20856;-74
2022/01/06 08:30:48;;;;;;;3.80;2.35;;;17.00;53.80;;;;;;4968464;28;20077;-75
2022/01/06 08:33:15;;;;;;;5.03;2.20;;;17.00;53.90;;;;;;4968445;28;20031;-72
2022/01/06 08:35:41;;;;;;;5.60;2.30;;;17.00;54.10;;;;;;4968584;28;20037;-74
2022/01/06 08:38:07;;;;;;;4.45;2.38;;;17.10;54.30;;;;;;4968538;28;20026;-75
2022/01/06 08:40:41;;;;;;;4.90;2.25;;;17.00;54.10;;;;;;4968363;28;20026;-73
2022/01/06 08:43:06;;;;;;;6.63;2.40;;;17.00;54.10;;;;;;4968132;28;20085;-73
2022/01/06 08:45:32;;;;;;;6.63;2.63;;;17.00;54.10;;;;;;4968022;28;20039;-73
2022/01/06 08:47:58;;;;;;;7.90;2.50;;;17.00;54.20;;;;;;4967701;28;20089;-72
2022/01/06 08:50:24;;;;;;;6.28;2.45;;;17.10;54.30;;;;;;4967864;28;20497;-72
2022/01/06 08:52:51;;;;;;;6.35;2.40;;;17.10;54.30;;;;;;4968173;28;20031;-74
2022/01/06 08:55:17;;;;;;;8.52;2.50;;;17.00;54.40;;;;;;4968151;28;20093;-76
2022/01/06 08:57:42;;;;;;;5.88;2.15;;;17.00;54.40;;;;;;4968198;28;20482;-74
2022/01/06 09:00:10;;;;;;;8.50;2.50;;;17.10;54.50;;;;;;4968377;28;20027;-72
2022/01/06 09:02:37;;;;;;;5.10;2.38;;;17.00;54.40;;;;;;4968045;28;20505;-72
2022/01/06 09:05:05;;;;;;;7.22;2.30;;;17.00;54.20;;;;;;4967882;28;20489;-72
2022/01/06 09:07:35;;;;;;;7.55;2.60;;;17.00;54.20;;;;;;4968217;28;20023;-71
2022/01/06 09:10:01;;;;;;;6.18;2.10;;;17.00;54.20;;;;;;4968115;28;20122;-75
2022/01/06 09:12:27;;;;;;;6.82;2.75;;;16.90;54.10;;;;;;4968054;28;20105;-72
2022/01/06 09:14:52;;;;;;;9.57;2.50;;;16.90;54.10;;;;;;4969029;28;20027;-73
2022/01/06 09:17:18;;;;;;;7.88;2.50;;;17.00;54.40;;;;;;4968712;28;20038;-72
2022/01/06 09:19:43;;;;;;;8.10;2.33;;;17.00;54.40;;;;;;4968025;28;20034;-73
2022/01/06 09:22:09;;;;;;;4.97;2.30;;;17.00;54.30;;;;;;4969072;28;20512;-73
2022/01/06 09:24:34;;;;;;;5.75;2.40;;;17.00;54.40;;;;;;4968823;28;20050;-72
2022/01/06 09:27:00;;;;;;;5.93;2.40;;;17.10;54.50;;;;;;4968693;28;20022;-70
2022/01/06 09:29:26;;;;;;;8.32;2.50;;;17.10;54.50;;;;;;4968722;28;20026;-72
2022/01/06 09:31:52;;;;;;;6.10;2.13;;;17.20;54.50;;;;;;4968745;28;20534;-69
2022/01/06 09:34:17;;;;;;;6.22;2.40;;;17.20;54.60;;;;;;4969002;28;20033;-72
2022/01/06 09:36:44;;;;;;;6.05;2.30;;;17.30;54.60;;;;;;4968388;28;20027;-71
2022/01/06 09:39:11;;;;;;;7.47;2.47;;;17.40;54.70;;;;;;4968345;28;20050;-70
2022/01/06 09:41:37;;;;;;;6.68;2.15;;;17.50;54.70;;;;;;4971053;28;20405;-73
2022/01/06 09:44:04;;;;;;;4.97;2.10;;;17.50;54.60;;;;;;4971589;28;20831;-71
2022/01/06 09:46:31;;;;;;;5.90;2.35;;;17.50;54.60;;;;;;4972195;28;20561;-73
2022/01/06 09:49:00;;;;;;;5.07;2.40;;;17.60;54.60;;;;;;4971837;28;20129;-73
2022/01/06 09:51:30;;;;;;;12.68;2.63;;;17.60;54.60;;;;;;4971802;28;20026;-72
2022/01/06 09:53:58;;;;;;;8.80;2.25;;;17.70;54.70;;;;;;4971412;28;20031;-73
2022/01/06 09:56:26;;;;;;;6.55;2.20;;;17.70;54.70;;;;;;4972139;28;20430;-75
2022/01/06 09:58:53;;;;;;;8.00;2.42;;;17.70;55.00;;;;;;4972531;28;20023;-71
2022/01/06 10:01:19;;;;;;;10.77;2.30;;;17.70;55.20;;;;;;4972683;28;20035;-75
2022/01/06 10:03:48;;;;;;;6.53;2.17;;;17.70;55.40;;;;;;4972227;28;20035;-74
2022/01/06 10:06:16;;;;;;;11.60;2.35;;;17.70;55.60;;;;;;4973992;28;20031;-74
2022/01/06 10:08:53;;;;;;;7.93;2.13;;;17.70;55.50;;;;;;4977027;28;20059;-75
2022/01/06 10:11:21;;;;;;;10.63;2.15;;;17.70;55.60;;;;;;4973453;28;20087;-77
2022/01/06 10:13:56;;;;;;;7.93;2.38;;;17.80;55.70;;;;;;4972043;28;20035;-77
2022/01/06 10:16:23;;;;;;;8.13;2.40;;;17.80;55.80;;;;;;4971300;28;20129;-76
2022/01/06 10:19:11;;;;;;;6.38;2.15;;;17.80;55.80;;;;;;4971776;28;20039;-76
2022/01/06 10:21:46;;;;;;;9.30;2.50;;;17.80;55.90;;;;;;4970823;28;20074;-76
2022/01/06 10:24:17;;;;;;;6.65;2.08;;;17.80;55.90;;;;;;4971739;28;20023;-76
2022/01/06 10:26:56;;;;;;;7.90;2.22;;;17.80;56.00;;;;;;4971445;28;20023;-77
2022/01/06 10:29:26;;;;;;;6.95;2.00;;;17.80;56.10;;;;;;4971424;28;20027;-77
2022/01/06 10:32:00;;;;;;;13.35;2.60;;;17.80;56.20;;;;;;4971828;28;20031;-76
2022/01/06 10:34:34;;;;;;;8.15;2.13;;;17.80;56.30;;;;;;4971216;28;20030;-75
2022/01/06 10:37:01;;;;;;;10.25;2.53;;;17.90;56.30;;;;;;4954068;28;20070;-75
2022/01/06 10:39:40;;;;;;;11.48;2.55;;;17.90;56.30;;;;;;4971000;28;20110;-75
2022/01/06 10:42:07;;;;;;;8.68;2.45;;;17.90;56.40;;;;;;4970877;28;20572;-76
2022/01/06 10:44:33;;;;;;;9.48;2.47;;;17.90;56.50;;;;;;4970465;28;20506;-76
2022/01/06 10:46:59;;;;;;;9.07;2.30;;;17.90;56.50;;;;;;4970842;28;20077;-79
2022/01/06 10:49:25;;;;;;;8.38;2.55;;;17.90;56.60;;;;;;4953705;28;20110;-79
2022/01/06 10:51:51;;;;;;;9.15;2.22;;;17.90;56.60;;;;;;4970263;28;20066;-79
2022/01/06 10:54:21;;;;;;;12.40;2.30;;;17.90;56.80;;;;;;4970439;28;20133;-78
2022/01/06 10:57:00;;;;;;;11.90;2.75;;;18.00;56.90;;;;;;4970268;28;20030;-75
2022/01/06 10:59:29;;;;;;;9.35;2.22;;;18.00;56.90;;;;;;4970351;28;20038;-75
2022/01/06 11:01:56;;;;;;;8.00;2.30;;;18.00;56.90;;;;;;4970440;28;20114;-74
2022/01/06 11:04:22;;;;;;;11.45;2.95;;;18.00;56.80;;;;;;4969747;28;20027;-75
2022/01/06 11:06:49;;;;;;;8.07;2.15;;;18.00;56.80;;;;;;4970501;28;20483;-69
2022/01/06 11:09:15;;;;;;;14.00;2.40;;;18.00;56.80;;;;;;4970348;28;20101;-75
2022/01/06 11:14:28;;;;;;;10.73;2.47;;;18.00;57.00;;;;;;4970620;28;20478;-73
2022/01/06 11:16:55;;;;;;;11.95;2.35;;;18.00;57.00;;;;;;4969737;28;20039;-75
2022/01/06 11:19:23;;;;;;;12.90;2.38;;;18.00;57.00;;;;;;4970031;28;20027;-75
2022/01/06 11:21:50;;;;;;;7.38;2.28;;;18.00;57.10;;;;;;4970121;28;20042;-74
2022/01/06 11:24:19;;;;;;;9.27;2.28;;;17.90;57.00;;;;;;4969500;28;20023;-73
2022/01/06 11:27:07;;;;;;;15.70;2.45;;;18.00;57.10;;;;;;4969844;28;20443;-74
2022/01/06 11:29:42;;;;;;;8.65;2.30;;;18.00;57.10;;;;;;4969159;28;20026;-74
2022/01/06 11:32:18;;;;;;;11.45;2.33;;;18.00;58.10;;;;;;4969816;28;20289;-73
2022/01/06 11:34:44;;;;;;;10.63;2.42;;;18.00;57.10;;;;;;4969132;28;20140;-74
2022/01/06 11:37:15;;;;;;;10.95;2.17;;;18.00;57.10;;;;;;4969579;28;20090;-72
2022/01/06 11:39:42;;;;;;;9.40;2.17;;;18.10;57.20;;;;;;4968843;28;20058;-74
2022/01/06 11:42:20;;;;;;;9.60;2.33;;;18.10;57.20;;;;;;4969330;28;20057;-73
2022/01/06 11:44:54;;;;;;;8.52;1.85;;;18.20;57.30;;;;;;4969023;28;20104;-76
2022/01/06 11:47:39;;;;;;;11.40;2.38;;;18.20;57.20;;;;;;4969564;28;20019;-76
2022/01/06 11:50:24;;;;;;;6.63;2.30;;;18.20;57.40;;;;;;4969601;28;20033;-76
2022/01/06 11:53:03;;;;;;;10.50;2.45;;;18.20;57.30;;;;;;4970731;28;20030;-74
2022/01/06 11:55:34;;;;;;;10.45;2.25;;;18.20;57.50;;;;;;4973336;28;20031;-76
2022/01/06 11:58:17;;;;;;;10.18;1.95;;;18.20;57.50;;;;;;4971399;28;20027;-75
2022/01/06 12:00:56;;;;;;;10.38;2.28;;;18.20;57.40;;;;;;4970626;28;20023;-75
2022/01/06 12:03:33;;;;;;;10.55;2.13;;;18.10;57.10;;;;;;4970381;28;20031;-75
2022/01/06 12:05:59;;;;;;;17.30;2.63;;;18.10;56.60;;;;;;4968751;28;20138;-75
2022/01/06 12:08:36;;;;;;;11.05;2.10;;;18.00;56.40;;;;;;4968889;28;20019;-75
2022/01/06 12:11:02;;;;;;;7.85;2.05;;;18.00;56.00;;;;;;4969355;28;20027;-75
2022/01/06 12:13:44;;;;;;;7.10;2.03;;;18.00;56.00;;;;;;4969134;28;20019;-74
2022/01/06 12:16:10;;;;;;;9.40;2.40;;;18.00;55.70;;;;;;4968657;28;20090;-76
2022/01/06 12:18:36;;;;;;;10.82;2.20;;;18.00;55.70;;;;;;4968848;28;20027;-77
2022/01/06 12:21:03;;;;;;;8.68;2.33;;;18.00;55.70;;;;;;4951426;28;20035;-75
2022/01/06 12:23:29;;;;;;;12.32;2.35;;;18.00;55.60;;;;;;4968666;28;20026;-76
2022/01/06 12:26:15;;;;;;;11.98;2.25;;;18.00;55.40;;;;;;4968830;28;20035;-77
2022/01/06 12:28:47;;;;;;;11.82;2.00;;;18.10;55.20;;;;;;4968759;28;20042;-76
2022/01/06 12:31:21;;;;;;;9.82;2.17;;;18.00;55.20;;;;;;4968329;28;20027;-76
2022/01/06 12:33:48;;;;;;;12.57;2.60;;;18.00;55.20;;;;;;4968617;28;20109;-76
2022/01/06 12:36:19;;;;;;;10.80;1.98;;;18.00;55.30;;;;;;4968918;28;20026;-76
2022/01/06 12:38:46;;;;;;;13.23;2.45;;;18.00;55.30;;;;;;4968585;28;20127;-77
2022/01/06 12:41:12;;;;;;;11.48;1.92;;;18.10;55.30;;;;;;4968586;28;20077;-76
2022/01/06 12:43:40;;;;;;;6.25;2.05;;;18.10;55.20;;;;;;4968364;28;20065;-76
2022/01/06 12:46:09;;;;;;;8.20;1.83;;;18.10;55.20;;;;;;4968633;28;20126;-76
2022/01/06 12:48:39;;;;;;;9.60;2.03;;;18.20;55.20;;;;;;4968368;28;20027;-76
2022/01/06 12:51:08;;;;;;;9.70;1.90;;;18.20;55.10;;;;;;4968439;28;20048;-76
2022/01/06 12:53:38;;;;;;;12.05;2.22;;;18.20;55.10;;;;;;4968469;28;20589;-76
2022/01/06 12:56:05;;;;;;;7.30;1.60;;;18.30;55.00;;;;;;4968421;28;20474;-76
2022/01/06 12:58:37;;;;;;;7.07;2.13;;;18.30;54.90;;;;;;4967919;28;20666;-76
2022/01/06 13:01:05;;;;;;;9.23;1.83;;;18.30;54.90;;;;;;4968049;28;20433;-76
2022/01/06 13:03:37;;;;;;;9.15;2.20;;;18.30;54.90;;;;;;4968337;28;20089;-76
2022/01/06 13:06:10;;;;;;;7.55;1.90;;;18.30;54.90;;;;;;4968221;28;20049;-76
2022/01/06 13:08:51;;;;;;;9.02;1.90;;;18.30;54.90;;;;;;4968502;28;20042;-76
2022/01/06 13:11:22;;;;;;;9.23;1.98;;;18.30;54.80;;;;;;4968105;28;20097;-76
2022/01/06 13:13:50;;;;;;;6.78;2.08;;;18.30;54.90;;;;;;4967906;28;20443;-76
2022/01/06 13:16:19;;;;;;;7.53;1.83;;;18.30;54.80;;;;;;4971171;28;20035;-76
2022/01/06 13:18:58;;;;;;;5.18;1.80;;;18.30;54.80;;;;;;4972869;28;20030;-76
2022/01/06 13:21:31;;;;;;;4.60;1.60;;;18.30;54.80;;;;;;4972316;28;20027;-76
2022/01/06 13:24:09;;;;;;;8.55;1.77;;;18.30;54.90;;;;;;4972636;28;20054;-77
2022/01/06 13:26:45;;;;;;;7.68;1.95;;;18.30;54.90;;;;;;4972869;28;20425;-76
2022/01/06 13:29:12;;;;;;;6.50;1.85;;;18.30;55.00;;;;;;4973078;28;20034;-77
2022/01/06 13:31:37;;;;;;;7.78;1.88;;;18.30;54.90;;;;;;4973358;28;20015;-77
2022/01/06 13:34:03;;;;;;;5.72;1.50;;;18.30;54.80;;;;;;4973829;28;20073;-76
2022/01/06 13:36:32;;;;;;;7.45;1.83;;;18.30;54.80;;;;;;4973986;28;20058;-77
2022/01/06 13:39:07;;;;;;;5.88;1.85;;;18.40;54.80;;;;;;4973999;28;20051;-76
2022/01/06 13:41:34;;;;;;;5.15;1.48;;;18.40;54.60;;;;;;4976732;28;20057;-76
2022/01/06 13:44:05;;;;;;;8.27;1.83;;;18.40;54.70;;;;;;4978596;28;20049;-76
2022/01/06 13:46:50;;;;;;;4.78;1.75;;;18.40;54.50;;;;;;4980032;28;20053;-76
2022/01/06 13:52:02;;;;;;;10.98;1.73;;;18.40;54.70;;;;;;4973375;28;20097;-75
2022/01/06 13:54:31;;;;;;;5.60;1.65;;;18.30;54.60;;;;;;4971950;28;20027;-76
2022/01/06 13:57:07;;;;;;;8.50;2.00;;;18.40;54.60;;;;;;4972079;28;20058;-76
2022/01/06 13:59:32;;;;;;;7.07;1.63;;;18.40;54.70;;;;;;4971977;28;20058;-76
2022/01/06 14:01:59;;;;;;;8.32;2.22;;;18.40;54.80;;;;;;4971488;28;20039;-73
2022/01/06 14:04:25;;;;;;;10.57;1.85;;;18.40;55.00;;;;;;4972535;28;20031;-79
2022/01/06 14:06:52;;;;;;;15.10;2.45;;;18.40;55.20;;;;;;4971999;28;20037;-74
2022/01/06 14:09:18;;;;;;;27.58;2.92;;;18.50;55.40;;;;;;4972786;28;20037;-76
2022/01/06 14:11:44;;;;;;;27.33;3.72;;;18.60;55.60;;;;;;4971605;28;20092;-74
2022/01/06 14:14:12;;;;;;;17.10;3.17;;;18.60;55.70;;;;;;4970747;28;20174;-73
2022/01/06 14:16:39;;;;;;;17.35;3.10;;;18.70;55.80;;;;;;4971528;28;20129;-76
2022/01/06 14:19:05;;;;;;;18.98;3.25;;;18.70;56.00;;;;;;4978023;28;20031;-78
2022/01/06 14:21:31;;;;;;;20.38;2.80;;;18.70;56.20;;;;;;4977820;28;20033;-82
2022/01/06 14:23:56;;;;;;;22.92;3.60;;;18.70;56.40;;;;;;4977077;28;20441;-75
2022/01/06 14:26:22;;;;;;;18.15;3.13;;;18.80;56.70;;;;;;4960396;28;20053;-80
2022/01/06 14:28:49;;;;;;;29.17;3.30;;;18.80;56.60;;;;;;4979266;28;20019;-79
2022/01/06 14:31:14;;;;;;;20.95;3.30;;;18.80;56.70;;;;;;4979492;28;20031;-81
2022/01/06 14:33:42;;;;;;;25.80;3.03;;;18.70;56.90;;;;;;4963673;28;20345;-77
2022/01/06 14:36:09;;;;;;;23.52;3.45;;;18.70;57.10;;;;;;4980103;28;20095;-77
2022/01/06 14:38:38;;;;;;;20.13;3.22;;;18.70;57.50;;;;;;4980452;28;20398;-79
2022/01/06 14:41:05;;;;;;;14.48;2.78;;;18.70;57.70;;;;;;4979820;28;20038;-76
2022/01/06 14:43:30;;;;;;;16.70;2.97;;;18.70;57.90;;;;;;4980030;28;20130;-77
2022/01/06 14:45:56;;;;;;;18.48;3.00;;;18.60;58.20;;;;;;4980658;28;20572;-80